createdAt,value
2022-09-05T00:01:41.258Z,53.34
2022-09-05T00:04:24.334Z,51.88
2022-09-05T00:07:03.414Z,52.07
2022-09-05T00:09:56.473Z,52.57
2022-09-05T00:12:27.178Z,52.24
2022-09-05T00:15:18.955Z,52.21
2022-09-05T00:23:31.977Z,52.39
2022-09-05T00:24:23.041Z,52.23
2022-09-05T00:24:50.077Z,52.42
2022-09-05T00:27:36.117Z,52.35
2022-09-05T00:31:08.755Z,52.29
2022-09-05T00:33:23.876Z,52.62
2022-09-05T00:36:03.307Z,52.54
2022-09-05T00:38:36.559Z,52.39
2022-09-05T00:41:07.998Z,52.54
2022-09-05T00:43:40.417Z,52.31
2022-09-05T00:46:15.102Z,52.49
2022-09-05T00:48:50.569Z,52.66
2022-09-05T00:51:34.492Z,52.44
2022-09-05T00:54:41.206Z,53.10
2022-09-05T00:57:32.463Z,52.77
2022-09-05T01:00:17.913Z,52.78
2022-09-05T01:03:18.877Z,52.82
2022-09-05T01:06:03.017Z,52.89
2022-09-05T01:08:46.897Z,53.01
2022-09-05T01:11:29.504Z,52.61
2022-09-05T01:14:13.115Z,52.66
2022-09-05T01:17:05.559Z,53.05
2022-09-05T01:19:51.979Z,53.02
2022-09-05T01:22:46.101Z,52.76
2022-09-05T01:25:28.805Z,52.85
2022-09-05T01:29:13.888Z,52.86
2022-09-05T01:30:58.883Z,52.94
2022-09-05T01:33:38.363Z,53.13
2022-09-05T01:36:20.051Z,53.02
2022-09-05T01:40:06.722Z,53.07
2022-09-05T01:41:54.812Z,52.83
2022-09-05T01:44:49.967Z,53.54
2022-09-05T01:47:30.973Z,53.13
2022-09-05T01:50:11.239Z,53.21
2022-09-05T01:52:59.536Z,53.16
2022-09-05T01:56:04.431Z,53.24
2022-09-05T01:58:56.760Z,53.16
2022-09-05T02:01:36.485Z,53.07
2022-09-05T02:04:29.696Z,53.33
2022-09-05T02:07:19.930Z,52.97
2022-09-05T02:10:16.295Z,53.23
2022-09-05T02:12:54.457Z,53.31
2022-09-05T02:15:41.826Z,53.11
2022-09-05T02:18:19.642Z,53.35
2022-09-05T02:20:52.502Z,53.38
2022-09-05T02:23:41.829Z,53.28
2022-09-05T02:26:18.675Z,53.43
2022-09-05T02:28:53.629Z,53.39
2022-09-05T02:31:27.409Z,53.49
2022-09-05T02:34:03.166Z,53.65
2022-09-05T02:36:42.728Z,53.43
2022-09-05T02:41:37.002Z,53.23
2022-09-05T02:45:08.135Z,53.30
2022-09-05T02:45:28.190Z,53.49
2022-09-05T02:48:15.554Z,53.50
2022-09-05T02:55:46.401Z,53.71
2022-09-05T02:57:33.493Z,53.59
2022-09-05T02:57:40.448Z,53.70
2022-09-05T03:00:02.291Z,53.62
2022-09-05T03:02:55.057Z,53.87
2022-09-05T03:05:27.822Z,53.79
2022-09-05T03:08:25.082Z,54.45
2022-09-05T03:11:27.973Z,54.29
2022-09-05T03:14:37.759Z,54.33
2022-09-05T03:17:27.403Z,54.25
2022-09-05T03:20:32.647Z,54.28
2022-09-05T03:23:27.910Z,54.04
2022-09-05T03:26:45.442Z,54.69
2022-09-05T03:29:46.731Z,54.54
2022-09-05T03:32:58.838Z,54.26
2022-09-05T03:36:14.632Z,54.31
2022-09-05T03:39:24.633Z,54.48
2022-09-05T03:42:14.757Z,54.38
2022-09-05T03:45:01.854Z,54.10
2022-09-05T03:48:02.292Z,54.28
2022-09-05T03:57:06.640Z,54.48
2022-09-05T03:57:14.439Z,54.11
2022-09-05T03:57:37.035Z,54.08
2022-09-05T04:00:10.702Z,53.91
2022-09-05T04:07:00.387Z,54.09
2022-09-05T04:08:16.194Z,54.06
2022-09-05T04:09:00.813Z,54.30
2022-09-05T04:11:35.621Z,53.97
2022-09-05T04:14:09.094Z,53.74
2022-09-05T04:16:49.391Z,53.65
2022-09-05T04:19:25.169Z,53.82
2022-09-05T04:22:17.867Z,53.95
2022-09-05T04:24:53.875Z,54.18
2022-09-05T04:27:32.680Z,54.27
2022-09-05T04:30:06.591Z,53.82
2022-09-05T04:33:00.684Z,53.89
2022-09-05T04:35:49.866Z,54.53
2022-09-05T04:38:19.790Z,53.89
2022-09-05T04:41:01.902Z,54.52
2022-09-05T04:43:37.396Z,53.92
2022-09-05T04:46:30.905Z,54.71
2022-09-05T04:49:03.336Z,57.48
2022-09-05T04:52:09.406Z,54.34
2022-09-05T04:54:46.606Z,54.03
2022-09-05T04:57:21.685Z,54.01
2022-09-05T05:06:03.161Z,54.42
2022-09-05T05:06:16.670Z,54.00
2022-09-05T05:06:19.100Z,54.01
2022-09-05T05:08:46.830Z,54.36
2022-09-05T05:18:01.502Z,54.25
2022-09-05T05:18:03.138Z,54.64
2022-09-05T05:18:07.220Z,54.19
2022-09-05T05:20:42.128Z,54.51
2022-09-05T05:23:07.558Z,54.44
2022-09-05T05:25:52.570Z,54.76
2022-09-05T05:28:28.902Z,54.73
2022-09-05T05:31:11.790Z,54.46
2022-09-05T05:33:42.050Z,54.26
2022-09-05T05:36:18.992Z,54.29
2022-09-05T05:38:53.577Z,54.33
2022-09-05T05:41:29.314Z,54.32
2022-09-05T05:44:00.026Z,54.04
2022-09-05T05:46:32.412Z,54.03
2022-09-05T05:49:27.355Z,54.05
2022-09-05T05:52:21.465Z,53.96
2022-09-05T05:55:07.362Z,53.85
2022-09-05T05:58:10.912Z,54.38
2022-09-05T06:01:09.498Z,55.02
2022-09-05T06:04:45.140Z,55.51
2022-09-05T06:08:22.541Z,54.74
2022-09-05T06:14:50.284Z,57.51
2022-09-05T06:15:00.481Z,56.96
2022-09-05T06:18:00.652Z,55.03
2022-09-05T06:22:10.090Z,54.61
2022-09-05T06:24:21.224Z,55.45
2022-09-05T06:27:15.266Z,53.98
2022-09-05T06:29:57.485Z,53.97
2022-09-05T06:32:50.175Z,53.71
2022-09-05T06:35:39.922Z,53.67
2022-09-05T06:38:24.263Z,53.79
2022-09-05T06:41:03.417Z,53.77
2022-09-05T06:43:51.449Z,53.52
2022-09-05T06:46:54.743Z,53.57
2022-09-05T06:49:32.476Z,53.20
2022-09-05T06:52:30.417Z,53.03
2022-09-05T06:55:34.658Z,53.17
2022-09-05T06:58:47.901Z,54.06
2022-09-05T07:01:41.541Z,52.59
2022-09-05T07:05:23.580Z,52.59
2022-09-05T07:07:31.750Z,52.31
2022-09-05T07:10:34.582Z,52.23
2022-09-05T07:13:13.589Z,52.39
2022-09-05T07:15:56.392Z,52.08
2022-09-05T07:18:46.952Z,52.29
2022-09-05T07:21:26.689Z,52.40
2022-09-05T07:24:08.754Z,52.29
2022-09-05T07:26:54.677Z,52.58
2022-09-05T07:29:27.892Z,54.75
2022-09-05T07:32:01.174Z,52.42
2022-09-05T07:34:32.974Z,52.22
2022-09-05T07:37:14.676Z,52.37
2022-09-05T07:39:50.946Z,52.54
2022-09-05T07:42:26.624Z,52.71
2022-09-05T07:44:59.323Z,52.37
2022-09-05T07:47:34.178Z,53.06
2022-09-05T07:52:21.095Z,52.66
2022-09-05T07:57:08.066Z,52.49
2022-09-05T07:57:08.360Z,52.34
2022-09-05T07:58:52.288Z,52.17
2022-09-05T08:01:22.830Z,52.18
2022-09-05T08:03:58.987Z,52.43
2022-09-05T08:07:45.475Z,52.35
2022-09-05T08:10:06.442Z,52.46
2022-09-05T08:12:27.632Z,51.90
2022-09-05T08:15:10.419Z,52.10
2022-09-05T08:17:56.106Z,52.06
2022-09-05T08:21:02.598Z,51.98
2022-09-05T08:23:49.667Z,51.98
2022-09-05T08:26:29.603Z,51.74
2022-09-05T08:29:04.486Z,51.52
2022-09-05T08:31:42.248Z,51.72
2022-09-05T08:34:27.713Z,52.14
2022-09-05T08:37:12.328Z,52.14
2022-09-05T08:39:48.468Z,53.46
2022-09-05T08:42:29.620Z,52.23
2022-09-05T08:46:43.402Z,52.02
2022-09-05T08:48:18.845Z,51.64
2022-09-05T08:51:16.493Z,51.89
2022-09-05T08:54:09.993Z,51.97
2022-09-05T08:56:53.398Z,52.01
2022-09-05T08:59:32.959Z,52.08
2022-09-05T09:02:47.514Z,52.07
2022-09-05T09:06:08.515Z,51.72
2022-09-05T09:08:50.711Z,51.26
2022-09-05T09:11:34.357Z,50.81
2022-09-05T09:14:36.646Z,50.89
2022-09-05T09:17:26.892Z,51.04
2022-09-05T09:20:20.212Z,50.80
2022-09-05T09:22:57.743Z,50.76
2022-09-05T09:25:51.171Z,51.29
2022-09-05T09:28:53.529Z,50.90
2022-09-05T09:31:41.417Z,50.78
2022-09-05T09:34:33.054Z,50.47
2022-09-05T09:37:49.902Z,50.73
2022-09-05T09:41:02.412Z,50.52
2022-09-05T09:43:53.164Z,50.34
2022-09-05T09:46:39.370Z,50.30
2022-09-05T09:49:35.660Z,50.40
2022-09-05T09:52:46.228Z,50.10
2022-09-05T09:56:10.087Z,50.04
2022-09-05T09:58:56.895Z,50.18
2022-09-05T10:01:42.259Z,50.04
2022-09-05T10:10:39.724Z,49.83
2022-09-05T10:11:16.814Z,49.64
2022-09-05T10:14:49.804Z,49.91
2022-09-05T10:18:05.497Z,49.74
2022-09-05T10:21:16.896Z,49.62
2022-09-05T10:24:12.314Z,49.46
2022-09-05T10:27:10.293Z,48.47
2022-09-05T10:29:48.272Z,49.17
2022-09-05T10:35:08.404Z,48.97
2022-09-05T10:35:25.933Z,48.54
2022-09-05T10:38:10.214Z,48.91
2022-09-05T10:41:20.170Z,48.88
2022-09-05T10:43:33.926Z,48.91
2022-09-05T10:46:49.617Z,48.46
2022-09-05T10:49:24.492Z,48.50
2022-09-05T10:52:07.008Z,48.52
2022-09-05T10:55:14.091Z,46.99
2022-09-05T10:58:03.635Z,48.09
2022-09-05T11:02:21.866Z,47.75
2022-09-05T11:03:50.382Z,48.53
2022-09-05T11:06:25.156Z,48.23
2022-09-05T11:09:12.214Z,47.34
2022-09-05T11:11:54.818Z,48.39
2022-09-05T11:14:42.142Z,47.74
2022-09-05T11:17:17.531Z,48.23
2022-09-05T11:19:53.235Z,48.00
2022-09-05T11:22:25.274Z,47.70
2022-09-05T11:24:56.595Z,47.68
2022-09-05T11:27:33.721Z,47.27
2022-09-05T11:30:07.967Z,47.35
2022-09-05T11:39:48.753Z,47.36
2022-09-05T11:40:06.361Z,47.38
2022-09-05T11:40:08.821Z,46.32
2022-09-05T11:42:35.917Z,47.11
2022-09-05T11:45:18.435Z,47.31
2022-09-05T11:48:27.461Z,46.66
2022-09-05T11:51:26.058Z,46.95
2022-09-05T11:54:46.032Z,47.30
2022-09-05T11:57:38.690Z,45.92
2022-09-05T12:00:31.900Z,47.64
2022-09-05T12:04:00.339Z,47.01
2022-09-05T12:07:25.227Z,47.28
2022-09-05T12:10:03.282Z,47.94
2022-09-05T12:12:41.717Z,47.50
2022-09-05T12:15:27.430Z,45.97
2022-09-05T12:18:25.735Z,47.49
2022-09-05T12:21:07.918Z,47.96
2022-09-05T12:25:16.592Z,48.12
2022-09-05T12:27:40.097Z,48.13
2022-09-05T12:30:00.436Z,47.56
2022-09-05T12:34:05.164Z,47.59
2022-09-05T12:36:07.465Z,47.42
2022-09-05T12:40:58.397Z,46.81
2022-09-05T12:42:13.830Z,46.89
2022-09-05T12:44:44.938Z,47.65
2022-09-05T12:47:21.129Z,44.63
2022-09-05T12:50:15.085Z,48.10
2022-09-05T12:52:46.494Z,47.73
2022-09-05T12:55:26.706Z,47.35
2022-09-05T13:02:58.132Z,45.36
2022-09-05T13:03:11.564Z,46.97
2022-09-05T13:04:26.778Z,47.20
2022-09-05T13:07:05.597Z,47.21
2022-09-05T13:10:00.630Z,47.22
2022-09-05T13:14:56.431Z,47.40
2022-09-05T13:15:24.963Z,47.48
2022-09-05T13:18:08.504Z,47.72
2022-09-05T13:20:39.703Z,47.81
2022-09-05T13:23:19.880Z,47.64
2022-09-05T13:25:59.069Z,47.30
2022-09-05T13:28:41.433Z,47.08
2022-09-05T13:37:54.454Z,46.85
2022-09-05T13:38:11.134Z,46.88
2022-09-05T13:38:12.077Z,46.91
2022-09-05T13:40:05.537Z,46.48
2022-09-05T13:42:37.190Z,46.72
2022-09-05T13:45:18.837Z,46.44
2022-09-05T13:48:28.679Z,46.32
2022-09-05T13:51:12.459Z,46.13
2022-09-05T13:54:00.202Z,47.05
2022-09-05T13:56:35.251Z,46.89
2022-09-05T13:59:08.826Z,46.98
2022-09-05T14:01:49.846Z,43.88
2022-09-05T14:05:19.368Z,45.03
2022-09-05T14:08:31.572Z,44.20
2022-09-05T14:11:21.001Z,46.42
2022-09-05T14:14:11.338Z,42.92
2022-09-05T14:16:53.720Z,46.25
2022-09-05T14:19:43.681Z,46.73
2022-09-05T14:22:31.542Z,46.71
2022-09-05T14:25:01.158Z,46.35
2022-09-05T14:27:32.164Z,46.80
2022-09-05T14:30:44.255Z,46.56
2022-09-05T14:37:46.278Z,46.63
2022-09-05T14:37:52.009Z,46.58
2022-09-05T14:39:19.653Z,45.99
2022-09-05T14:42:12.375Z,45.51
2022-09-05T14:45:06.266Z,46.96
2022-09-05T14:48:13.337Z,43.69
2022-09-05T14:51:25.385Z,44.09
2022-09-05T14:54:12.809Z,45.76
2022-09-05T14:57:23.547Z,46.55
2022-09-05T15:02:47.887Z,46.88
2022-09-05T15:02:49.442Z,46.34
2022-09-05T15:05:50.049Z,45.74
2022-09-05T15:10:23.965Z,45.34
2022-09-05T15:12:24.307Z,46.94
2022-09-05T15:14:07.099Z,46.80
2022-09-05T15:16:40.393Z,46.89
2022-09-05T15:19:10.942Z,47.42
2022-09-05T15:21:41.550Z,46.87
2022-09-05T15:24:19.153Z,45.74
2022-09-05T15:26:53.220Z,46.52
2022-09-05T15:29:34.198Z,43.03
2022-09-05T15:32:15.700Z,46.12
2022-09-05T15:34:54.863Z,46.37
2022-09-05T15:37:29.135Z,46.74
2022-09-05T15:40:23.252Z,46.59
2022-09-05T15:42:55.027Z,46.50
2022-09-05T15:45:27.813Z,46.73
2022-09-05T15:48:09.413Z,46.45
2022-09-05T15:50:47.258Z,46.34
2022-09-05T15:53:26.370Z,46.36
2022-09-05T15:56:00.965Z,46.86
2022-09-05T15:58:54.129Z,46.57
2022-09-05T16:01:35.884Z,46.60
2022-09-05T16:09:06.066Z,46.14
2022-09-05T16:10:33.771Z,45.15
2022-09-05T16:10:34.103Z,46.20
2022-09-05T16:12:47.251Z,46.66
2022-09-05T16:17:24.839Z,46.40
2022-09-05T16:23:14.824Z,46.79
2022-09-05T16:23:26.990Z,46.87
2022-09-05T16:24:06.014Z,46.33
2022-09-05T16:26:42.872Z,46.41
2022-09-05T16:29:23.865Z,46.68
2022-09-05T16:32:12.879Z,46.65
2022-09-05T16:34:49.716Z,46.90
2022-09-05T16:37:29.683Z,47.10
2022-09-05T16:40:04.614Z,46.84
2022-09-05T16:42:47.256Z,47.04
2022-09-05T16:45:23.455Z,46.98
2022-09-05T16:48:06.616Z,47.25
2022-09-05T16:50:48.182Z,46.54
2022-09-05T16:53:32.285Z,45.17
2022-09-05T16:56:05.280Z,46.72
2022-09-05T16:58:38.059Z,46.88
2022-09-05T17:01:28.734Z,46.73
2022-09-05T17:04:09.619Z,45.01
2022-09-05T17:06:51.591Z,47.10
2022-09-05T17:09:23.696Z,46.89
2022-09-05T17:12:01.325Z,47.03
2022-09-05T17:14:37.914Z,47.03
2022-09-05T17:17:36.467Z,46.50
2022-09-05T17:20:10.765Z,46.47
2022-09-05T17:29:19.963Z,46.88
2022-09-05T17:29:20.567Z,46.21
2022-09-05T17:29:30.722Z,45.80
2022-09-05T17:31:53.461Z,46.69
2022-09-05T17:34:50.436Z,45.67
2022-09-05T17:37:32.638Z,47.02
2022-09-05T17:40:17.797Z,46.97
2022-09-05T17:42:54.751Z,47.38
2022-09-05T17:45:26.836Z,47.12
2022-09-05T17:47:57.640Z,47.73
2022-09-05T17:50:51.276Z,47.38
2022-09-05T17:53:26.346Z,47.64
2022-09-05T17:56:12.935Z,46.81
2022-09-05T17:59:25.147Z,45.49
2022-09-05T18:02:26.063Z,47.40
2022-09-05T18:04:56.718Z,48.07
2022-09-05T18:07:58.099Z,46.67
2022-09-05T18:11:02.083Z,46.59
2022-09-05T18:13:52.715Z,47.01
2022-09-05T18:16:31.553Z,46.79
2022-09-05T18:19:37.887Z,47.12
2022-09-05T18:22:25.293Z,47.28
2022-09-05T18:25:15.727Z,48.07
2022-09-05T18:28:05.402Z,48.01
2022-09-05T18:30:36.331Z,48.17
2022-09-05T18:33:55.320Z,48.30
2022-09-05T18:36:34.767Z,47.55
2022-09-05T18:39:40.354Z,48.08
2022-09-05T18:42:33.480Z,48.38
2022-09-05T18:45:14.464Z,48.40
2022-09-05T18:47:50.937Z,48.68
2022-09-05T18:50:27.885Z,48.97
2022-09-05T18:53:05.701Z,48.95
2022-09-05T18:56:13.789Z,48.97
2022-09-05T18:58:34.636Z,49.01
2022-09-05T19:01:20.528Z,49.18
2022-09-05T19:03:52.495Z,49.00
2022-09-05T19:06:36.945Z,49.18
2022-09-05T19:09:08.377Z,49.21
2022-09-05T19:11:52.749Z,49.28
2022-09-05T19:14:35.368Z,49.53
2022-09-05T19:17:09.422Z,49.33
2022-09-05T19:20:30.741Z,49.32
2022-09-05T19:23:09.653Z,49.31
2022-09-05T19:25:42.423Z,49.40
2022-09-05T19:36:46.518Z,49.44
2022-09-05T19:36:57.235Z,49.55
2022-09-05T19:37:11.018Z,49.56
2022-09-05T19:45:03.565Z,49.75
2022-09-05T19:47:42.607Z,49.77
2022-09-05T19:47:51.865Z,49.80
2022-09-05T19:50:58.943Z,49.90
2022-09-05T19:53:27.108Z,49.94
2022-09-05T19:55:55.613Z,49.98
2022-09-05T19:58:25.486Z,49.95
2022-09-05T20:01:08.177Z,49.98
2022-09-05T20:03:44.883Z,49.98
2022-09-05T20:06:28.936Z,50.06
2022-09-05T20:09:15.714Z,50.23
2022-09-05T20:11:49.460Z,50.23
2022-09-05T20:14:25.034Z,51.51
2022-09-05T20:17:24.742Z,50.28
2022-09-05T20:20:08.504Z,50.78
2022-09-05T20:22:47.070Z,50.43
2022-09-05T20:25:35.150Z,50.55
2022-09-05T20:28:10.160Z,50.38
2022-09-05T20:30:43.325Z,50.53
2022-09-05T20:33:19.182Z,50.52
2022-09-05T20:40:49.888Z,50.34
2022-09-05T20:43:25.331Z,50.58
2022-09-05T20:43:30.100Z,50.63
2022-09-05T20:44:24.766Z,50.50
2022-09-05T20:50:40.005Z,51.72
2022-09-05T20:54:12.984Z,50.63
2022-09-05T20:54:18.398Z,50.44
2022-09-05T20:55:43.469Z,50.76
2022-09-05T20:58:13.869Z,50.65
2022-09-05T21:01:19.487Z,50.69
2022-09-05T21:03:41.549Z,50.54
2022-09-05T21:06:29.499Z,50.98
2022-09-05T21:09:22.482Z,50.94
2022-09-05T21:11:54.472Z,50.97
2022-09-05T21:14:24.025Z,51.00
2022-09-05T21:16:59.150Z,51.13
2022-09-05T21:19:31.937Z,51.04
2022-09-05T21:22:09.184Z,51.13
2022-09-05T21:24:42.329Z,51.11
2022-09-05T21:27:16.449Z,51.26
2022-09-05T21:29:45.598Z,51.03
2022-09-05T21:32:21.279Z,51.18
2022-09-05T21:34:52.137Z,51.25
2022-09-05T21:37:21.563Z,51.63
2022-09-05T21:39:58.641Z,51.32
2022-09-05T21:47:10.524Z,51.62
2022-09-05T21:47:42.247Z,51.54
2022-09-05T21:48:07.634Z,51.33
2022-09-05T21:50:49.102Z,51.41
2022-09-05T21:55:01.178Z,51.66
2022-09-05T21:59:29.386Z,51.78
2022-09-05T21:59:30.077Z,51.55
2022-09-05T22:02:05.330Z,51.46
2022-09-05T22:04:37.115Z,51.87
2022-09-05T22:07:20.273Z,51.73
2022-09-05T22:10:03.220Z,51.57
2022-09-05T22:12:38.485Z,51.82
2022-09-05T22:15:27.413Z,51.71
2022-09-05T22:17:59.683Z,51.93
2022-09-05T22:20:57.199Z,51.80
2022-09-05T22:23:36.776Z,51.93
2022-09-05T22:26:06.489Z,52.18
2022-09-05T22:28:46.185Z,52.06
2022-09-05T22:31:14.096Z,52.09
2022-09-05T22:33:42.024Z,52.23
2022-09-05T22:36:10.230Z,52.28
2022-09-05T22:38:38.414Z,52.31
2022-09-05T22:41:06.783Z,52.17
2022-09-05T22:43:36.212Z,52.38
2022-09-05T22:46:08.323Z,52.32
2022-09-05T22:48:38.876Z,52.55
2022-09-05T22:51:07.047Z,52.36
2022-09-05T22:53:34.952Z,52.27
2022-09-05T22:56:04.910Z,52.67
2022-09-05T22:58:39.721Z,52.51
2022-09-05T23:01:08.526Z,52.79
2022-09-05T23:03:36.452Z,52.81
2022-09-05T23:06:06.571Z,52.70
2022-09-05T23:08:34.739Z,52.87
2022-09-05T23:11:07.766Z,53.07
2022-09-05T23:13:40.575Z,53.22
2022-09-05T23:16:09.258Z,53.10
2022-09-05T23:18:37.576Z,53.35
2022-09-05T23:21:07.606Z,53.23
2022-09-05T23:23:37.753Z,53.26
2022-09-05T23:26:11.211Z,53.85
2022-09-05T23:28:43.288Z,53.79
2022-09-05T23:31:12.823Z,53.75
2022-09-05T23:33:43.591Z,53.85
2022-09-05T23:36:13.683Z,53.88
2022-09-05T23:38:43.171Z,53.99
2022-09-05T23:41:20.216Z,54.95
2022-09-05T23:43:49.466Z,54.13
2022-09-05T23:46:19.671Z,53.99
2022-09-05T23:48:50.427Z,53.96
2022-09-05T23:51:23.598Z,53.99
2022-09-05T23:53:51.517Z,53.98
2022-09-05T23:56:21.779Z,54.22
2022-09-05T23:58:51.013Z,54.03
